Time;durP1;ratioP1;P1;durP2;ratioP2;P2;SDS_P1;SDS_P2;PMS_P1;PMS_P2;Temp;Humidity;BMP_temperature;BMP_pressure;BME280_temperature;BME280_humidity;BME280_pressure;Samples;Min_cycle;Max_cycle;Signal;HPM_P1;HPM_P2
2022/10/20 00:00:56;;;;;;;11.93;9.53;;;;;;;15.48;62.66;97782.75;5043180;28;22326;-74
2022/10/20 00:03:22;;;;;;;11.27;10.07;;;;;;;15.41;62.67;97780.94;5044896;28;20241;-74
2022/10/20 00:05:47;;;;;;;12.20;9.10;;;;;;;15.44;62.52;97776.13;5043903;28;20436;-75
2022/10/20 00:08:13;;;;;;;11.17;9.27;;;;;;;15.40;62.52;97779.28;5036767;28;20450;-75
2022/10/20 00:10:39;;;;;;;9.30;8.50;;;;;;;15.35;62.34;97782.44;5050606;28;20213;-75
2022/10/20 00:13:04;;;;;;;11.07;9.33;;;;;;;15.27;62.29;97775.38;5032278;28;20538;-74
2022/10/20 00:15:30;;;;;;;15.43;9.03;;;;;;;15.24;62.58;97769.59;5051067;28;20247;-75
2022/10/20 00:17:55;;;;;;;11.43;8.30;;;;;;;15.24;62.46;97764.31;5055542;28;20254;-76
2022/10/20 00:20:21;;;;;;;12.43;8.80;;;;;;;15.22;62.55;97766.31;5047022;28;20207;-74
2022/10/20 00:22:46;;;;;;;13.30;8.67;;;;;;;15.15;62.43;97766.16;5040761;28;20195;-75
2022/10/20 00:25:12;;;;;;;12.87;9.10;;;;;;;15.16;62.73;97763.31;5021309;28;20253;-74
2022/10/20 00:27:37;;;;;;;15.10;9.37;;;;;;;15.20;62.64;97767.28;5042908;28;20206;-73
2022/10/20 00:30:03;;;;;;;16.00;8.70;;;;;;;15.16;62.52;97768.59;5039208;28;20655;-72
2022/10/20 00:32:29;;;;;;;10.73;9.60;;;;;;;15.12;62.63;97772.56;5041777;28;20237;-72
2022/10/20 00:34:54;;;;;;;10.93;8.80;;;;;;;15.14;62.49;97767.13;5040131;28;20183;-73
2022/10/20 00:37:20;;;;;;;12.13;9.07;;;;;;;15.12;62.42;97762.00;5049934;28;20268;-72
2022/10/20 00:39:45;;;;;;;12.97;9.30;;;;;;;15.13;62.46;97763.66;5040844;28;20226;-72
2022/10/20 00:42:15;;;;;;;10.40;9.40;;;;;;;15.03;62.56;97771.78;5035630;28;20719;-73
2022/10/20 00:44:54;;;;;;;12.97;9.10;;;;;;;15.05;62.55;97766.31;5041465;28;20195;-72
2022/10/20 00:47:30;;;;;;;14.43;10.07;;;;;;;15.00;63.01;97771.25;5033372;28;20466;-73
2022/10/20 00:49:55;;;;;;;10.57;9.30;;;;;;;15.00;63.08;97771.25;5041292;28;20433;-74
2022/10/20 00:52:21;;;;;;;12.90;9.60;;;;;;;14.98;63.01;97762.72;5036619;28;20497;-73
2022/10/20 00:54:47;;;;;;;10.93;9.00;;;;;;;14.94;62.74;97754.28;5037262;28;20237;-74
2022/10/20 00:57:13;;;;;;;10.50;8.70;;;;;;;14.97;62.57;97750.50;5035245;28;20211;-74
2022/10/20 00:59:38;;;;;;;18.63;9.07;;;;;;;14.98;62.43;97746.88;5053346;28;20444;-74
2022/10/20 01:02:05;;;;;;;9.97;8.97;;;;;;;14.93;62.39;97730.69;5041867;28;20211;-72
2022/10/20 01:04:31;;;;;;;14.90;9.33;;;;;;;14.88;62.37;97732.03;5021177;28;20194;-73
2022/10/20 01:06:57;;;;;;;11.53;9.97;;;;;;;14.90;62.84;97726.59;5034160;28;20442;-74
2022/10/20 01:09:23;;;;;;;14.00;10.13;;;;;;;14.88;62.90;97724.09;5035758;28;20207;-74
2022/10/20 01:11:57;;;;;;;13.60;10.00;;;;;;;14.92;62.80;97713.22;5041779;28;20858;-73
2022/10/20 01:14:32;;;;;;;12.13;9.80;;;;;;;14.93;62.96;97709.59;5043368;28;20203;-74
2022/10/20 01:17:28;;;;;;;13.53;10.27;;;;;;;14.88;62.59;97702.19;5044496;28;20857;-74
2022/10/20 01:20:10;;;;;;;11.60;9.30;;;;;;;14.84;62.27;97706.97;5042157;28;20443;-74
2022/10/20 01:22:53;;;;;;;10.50;9.40;;;;;;;14.80;62.60;97710.13;5031182;28;20521;-74
2022/10/20 01:25:26;;;;;;;14.47;10.03;;;;;;;14.71;63.20;97711.94;5040766;28;20492;-73
2022/10/20 01:27:58;;;;;;;11.13;9.37;;;;;;;14.77;63.05;97716.53;5037552;28;20454;-74
2022/10/20 01:30:24;;;;;;;11.90;8.70;;;;;;;14.72;62.85;97703.03;5041249;28;20438;-73
2022/10/20 01:33:14;;;;;;;11.27;9.03;;;;;;;14.65;62.78;97704.63;5032075;28;20963;-74
2022/10/20 01:35:45;;;;;;;11.30;9.90;;;;;;;14.72;63.48;97697.75;5037806;28;20438;-72
2022/10/20 01:38:15;;;;;;;15.93;10.73;;;;;;;14.75;63.51;97700.03;5034895;28;20461;-73
2022/10/20 01:40:49;;;;;;;12.60;10.70;;;;;;;14.75;63.64;97692.13;5040281;28;20456;-73
2022/10/20 01:43:16;;;;;;;15.87;10.57;;;;;;;14.78;63.63;97697.06;5032038;28;20458;-74
2022/10/20 01:45:44;;;;;;;11.60;9.20;;;;;;;14.74;63.34;97696.59;5023466;28;21011;-73
2022/10/20 01:48:11;;;;;;;11.80;9.43;;;;;;;14.77;62.92;97695.44;5050266;28;20516;-73
2022/10/20 01:50:38;;;;;;;19.17;9.83;;;;;;;14.75;62.98;97686.84;5037747;28;20436;-72
2022/10/20 01:53:04;;;;;;;13.83;8.70;;;;;;;14.69;62.96;97682.25;5052447;28;20426;-73
2022/10/20 01:55:29;;;;;;;14.47;10.53;;;;;;;14.67;63.04;97677.16;5035753;28;20442;-74
2022/10/20 01:58:16;;;;;;;11.30;10.10;;;;;;;14.67;63.97;97676.28;5053248;28;20309;-74
2022/10/20 02:00:43;;;;;;;20.20;11.10;;;;;;;14.58;63.99;97670.19;5040632;28;20680;-74
2022/10/20 02:03:19;;;;;;;14.37;10.70;;;;;;;14.63;64.22;97667.03;5042844;28;20528;-74
2022/10/20 02:05:57;;;;;;;15.47;11.70;;;;;;;14.68;64.41;97659.50;5038330;28;20466;-73
2022/10/20 02:08:31;;;;;;;16.73;10.73;;;;;;;14.66;64.88;97656.16;5035571;28;20970;-75
2022/10/20 02:11:00;;;;;;;18.67;10.63;;;;;;;14.64;63.86;97671.34;5041792;28;20440;-74
2022/10/20 02:13:28;;;;;;;11.10;9.90;;;;;;;14.67;63.79;97663.97;5041031;28;20989;-74
2022/10/20 02:15:56;;;;;;;15.33;10.87;;;;;;;14.71;63.85;97656.53;5051975;28;20446;-74
2022/10/20 02:18:34;;;;;;;16.37;9.80;;;;;;;14.58;63.76;97655.19;5028399;28;20457;-74
2022/10/20 02:21:02;;;;;;;17.57;11.33;;;;;;;14.59;63.72;97656.84;5032929;28;20842;-73
2022/10/20 02:23:29;;;;;;;15.33;10.97;;;;;;;14.61;63.56;97648.75;5039908;28;20437;-74
2022/10/20 02:25:55;;;;;;;14.17;10.60;;;;;;;14.58;63.82;97639.38;5033963;28;20450;-74
2022/10/20 02:28:21;;;;;;;16.30;11.17;;;;;;;14.56;63.54;97645.78;5038284;28;20457;-74
2022/10/20 02:30:47;;;;;;;15.10;11.03;;;;;;;14.55;63.68;97644.16;5039202;28;20799;-75
2022/10/20 02:33:13;;;;;;;11.93;9.80;;;;;;;14.57;63.80;97645.63;5034399;28;20195;-75
2022/10/20 02:35:41;;;;;;;12.80;9.57;;;;;;;14.61;63.58;97646.13;5043618;28;20670;-73
2022/10/20 02:38:07;;;;;;;12.97;10.87;;;;;;;14.63;63.65;97638.88;5028357;28;20458;-74
2022/10/20 02:40:32;;;;;;;23.47;9.67;;;;;;;14.57;63.56;97628.97;5042541;28;20460;-74
2022/10/20 02:42:58;;;;;;;14.20;9.67;;;;;;;14.60;63.49;97628.66;5030661;28;20765;-74
2022/10/20 02:45:23;;;;;;;13.10;10.57;;;;;;;14.64;63.64;97639.69;5043925;28;21700;-73
2022/10/20 02:47:48;;;;;;;15.37;10.37;;;;;;;14.64;63.48;97642.31;5031260;28;20270;-74
2022/10/20 02:50:15;;;;;;;16.53;10.90;;;;;;;14.54;64.07;97639.88;5042973;28;20715;-72
2022/10/20 02:52:41;;;;;;;19.10;10.33;;;;;;;14.49;64.51;97629.81;5033450;28;20600;-73
2022/10/20 02:55:07;;;;;;;11.07;9.67;;;;;;;14.47;64.50;97642.38;5041802;28;20433;-73
2022/10/20 02:57:32;;;;;;;20.13;10.60;;;;;;;14.49;64.30;97635.09;5035909;28;20210;-72
2022/10/20 02:59:57;;;;;;;13.10;10.27;;;;;;;14.55;63.51;97634.44;5037507;28;20190;-74
2022/10/20 03:02:23;;;;;;;12.60;10.40;;;;;;;14.54;63.68;97634.59;5037967;28;20337;-74
2022/10/20 03:04:48;;;;;;;13.57;10.50;;;;;;;14.58;63.89;97630.63;5037884;28;20724;-74
2022/10/20 03:07:14;;;;;;;12.23;10.63;;;;;;;14.59;63.96;97637.56;5037249;28;20219;-74
2022/10/20 03:09:39;;;;;;;12.03;10.00;;;;;;;14.62;63.85;97631.13;5043214;28;20194;-74
2022/10/20 03:12:05;;;;;;;16.97;11.10;;;;;;;14.62;63.69;97626.66;5042910;28;20179;-74
2022/10/20 03:14:30;;;;;;;16.53;10.20;;;;;;;14.56;63.88;97633.44;5044209;28;20669;-72
2022/10/20 03:16:56;;;;;;;12.57;10.53;;;;;;;14.51;63.67;97630.47;5047017;28;20191;-74
2022/10/20 03:19:21;;;;;;;15.73;9.77;;;;;;;14.49;63.75;97634.28;5039509;28;20192;-73
2022/10/20 03:21:48;;;;;;;15.00;9.43;;;;;;;14.46;63.31;97634.59;5042329;28;20203;-72
2022/10/20 03:24:14;;;;;;;11.73;9.80;;;;;;;14.41;63.51;97635.09;5042500;28;20281;-73
2022/10/20 03:26:39;;;;;;;18.80;9.00;;;;;;;14.44;63.57;97634.78;5039858;28;20997;-73
2022/10/20 03:29:04;;;;;;;14.33;10.57;;;;;;;14.44;63.82;97634.78;5041766;28;20275;-72
2022/10/20 03:31:30;;;;;;;14.20;10.10;;;;;;;14.42;63.55;97632.31;5040848;28;20179;-73
2022/10/20 03:33:55;;;;;;;14.93;10.90;;;;;;;14.39;63.74;97630.00;5043289;28;20187;-73
2022/10/20 03:36:21;;;;;;;14.73;10.33;;;;;;;14.42;64.02;97623.56;5039982;28;20199;-74
2022/10/20 03:38:46;;;;;;;12.97;11.07;;;;;;;14.46;63.89;97624.88;5038303;28;20207;-73
2022/10/20 03:41:12;;;;;;;14.77;9.90;;;;;;;14.45;63.71;97623.25;5039852;28;20637;-74
2022/10/20 03:43:38;;;;;;;14.87;9.77;;;;;;;14.46;63.95;97619.63;5035256;28;20588;-72
2022/10/20 03:46:06;;;;;;;12.97;10.40;;;;;;;14.45;63.73;97617.97;5026795;28;20630;-73
2022/10/20 03:48:32;;;;;;;16.53;10.30;;;;;;;14.45;63.71;97617.97;5041448;28;21014;-73
2022/10/20 03:50:59;;;;;;;13.80;10.43;;;;;;;14.44;63.93;97611.84;5042962;28;20434;-73
2022/10/20 03:53:24;;;;;;;15.33;10.13;;;;;;;14.48;64.05;97614.16;5039411;28;20221;-74
2022/10/20 03:55:49;;;;;;;14.73;9.60;;;;;;;14.49;63.66;97619.25;5039330;28;20435;-73
2022/10/20 03:58:15;;;;;;;12.37;10.40;;;;;;;14.52;63.80;97610.22;5041542;28;20257;-73
2022/10/20 04:00:40;;;;;;;12.43;9.47;;;;;;;14.53;63.72;97603.94;5041799;28;20669;-73
2022/10/20 04:03:06;;;;;;;15.50;10.27;;;;;;;14.48;64.05;97604.44;5044760;28;20536;-74
2022/10/20 04:05:31;;;;;;;12.37;10.27;;;;;;;14.54;63.97;97595.03;5041241;28;20258;-74
2022/10/20 04:07:57;;;;;;;13.80;10.90;;;;;;;14.50;63.94;97594.53;5041797;28;20295;-72
2022/10/20 04:10:22;;;;;;;13.13;11.10;;;;;;;14.52;64.01;97603.09;5040508;28;20223;-73
2022/10/20 04:12:47;;;;;;;13.50;10.10;;;;;;;14.55;63.89;97604.59;5041444;28;20253;-72
2022/10/20 04:15:13;;;;;;;15.60;11.40;;;;;;;14.57;64.03;97595.53;5052074;28;20328;-73
2022/10/20 04:17:38;;;;;;;17.80;11.40;;;;;;;14.54;64.15;97592.41;5049429;28;20724;-73
2022/10/20 04:20:05;;;;;;;14.50;10.20;;;;;;;14.52;63.95;97589.94;5046885;28;20183;-75
2022/10/20 04:22:31;;;;;;;18.13;11.00;;;;;;;14.51;63.95;97590.91;5046021;28;20218;-74
2022/10/20 04:24:56;;;;;;;14.97;11.40;;;;;;;14.51;63.96;97584.81;5051805;28;20914;-75
2022/10/20 04:27:22;;;;;;;18.60;11.67;;;;;;;14.51;64.25;97590.91;5050385;28;20286;-75
2022/10/20 04:29:47;;;;;;;21.40;11.00;;;;;;;14.49;64.08;97595.53;5052226;28;20247;-75
2022/10/20 04:32:13;;;;;;;13.90;11.07;;;;;;;14.47;64.50;97583.50;5050994;28;20497;-74
2022/10/20 04:34:38;;;;;;;13.63;9.90;;;;;;;14.47;64.26;97589.63;5050530;28;20199;-75
2022/10/20 04:37:04;;;;;;;14.97;10.37;;;;;;;14.46;64.27;97587.13;5049736;28;20183;-74
2022/10/20 04:39:30;;;;;;;15.37;10.60;;;;;;;14.47;64.25;97592.25;5050828;28;20228;-75
2022/10/20 04:41:55;;;;;;;13.13;11.07;;;;;;;14.37;64.69;97588.94;5047948;28;20678;-75
2022/10/20 04:44:21;;;;;;;17.43;10.37;;;;;;;14.38;65.08;97582.69;5049617;28;20647;-74
2022/10/20 04:46:46;;;;;;;16.50;10.93;;;;;;;14.41;65.07;97577.94;5048594;28;20179;-74
2022/10/20 04:49:12;;;;;;;15.40;10.93;;;;;;;14.42;65.06;97581.38;5050882;28;20232;-74
2022/10/20 04:51:38;;;;;;;16.90;10.37;;;;;;;14.46;65.07;97581.84;5051734;28;20550;-74
2022/10/20 04:54:03;;;;;;;16.93;10.90;;;;;;;14.45;64.95;97581.06;5051714;28;20551;-75
2022/10/20 04:56:29;;;;;;;12.50;10.60;;;;;;;14.39;64.91;97586.97;5048994;28;20185;-74
2022/10/20 04:58:56;;;;;;;15.90;9.90;;;;;;;14.40;64.82;97578.06;5051384;28;20289;-74
2022/10/20 05:01:25;;;;;;;22.40;12.13;;;;;;;14.36;65.05;97576.78;5051566;28;20293;-74
2022/10/20 05:03:51;;;;;;;16.67;11.10;;;;;;;14.42;65.25;97571.66;5047518;28;20534;-74
2022/10/20 05:06:22;;;;;;;15.53;10.37;;;;;;;14.48;65.17;97574.59;5048942;28;20433;-74
2022/10/20 05:08:50;;;;;;;22.83;12.90;;;;;;;14.53;65.29;97567.84;5049895;28;20281;-72
2022/10/20 05:11:16;;;;;;;14.10;11.20;;;;;;;14.52;65.58;97562.75;5049805;28;20491;-74
2022/10/20 05:13:42;;;;;;;16.93;10.70;;;;;;;14.42;65.45;97557.66;5043824;28;20472;-72
2022/10/20 05:16:08;;;;;;;17.57;11.87;;;;;;;14.44;65.14;97555.66;5052451;28;20976;-73
2022/10/20 05:18:34;;;;;;;20.63;10.60;;;;;;;14.49;65.01;97549.88;5050364;28;20206;-73
2022/10/20 05:21:06;;;;;;;15.97;11.50;;;;;;;14.55;65.19;97549.22;5050718;28;20975;-74
2022/10/20 05:23:32;;;;;;;16.20;11.00;;;;;;;14.59;65.07;97551.34;5050986;28;20432;-75
2022/10/20 05:26:01;;;;;;;14.53;11.70;;;;;;;14.67;65.05;97547.03;5049663;28;20422;-74
2022/10/20 05:28:26;;;;;;;18.13;11.40;;;;;;;14.68;65.19;97533.69;5047862;28;20264;-73
2022/10/20 05:30:51;;;;;;;22.00;11.20;;;;;;;14.67;65.14;97520.66;5050509;28;20513;-73
2022/10/20 05:33:17;;;;;;;20.83;13.27;;;;;;;14.61;65.16;97521.34;5049073;28;20182;-74
2022/10/20 05:35:42;;;;;;;17.77;12.30;;;;;;;14.63;65.23;97528.09;5040227;28;20323;-74
2022/10/20 05:38:08;;;;;;;19.83;12.67;;;;;;;14.65;65.46;97539.28;5031959;28;20238;-74
2022/10/20 05:40:33;;;;;;;16.20;11.30;;;;;;;14.61;65.82;97537.97;5031525;28;20345;-73
2022/10/20 05:42:59;;;;;;;16.40;12.10;;;;;;;14.68;66.04;97538.16;5033932;28;20711;-73
2022/10/20 05:45:24;;;;;;;20.37;13.07;;;;;;;14.67;66.09;97537.34;5033894;28;20275;-75
2022/10/20 05:47:49;;;;;;;15.70;12.30;;;;;;;14.71;66.11;97530.72;5038272;28;20242;-74
2022/10/20 05:50:15;;;;;;;17.20;13.20;;;;;;;14.65;66.01;97520.84;5037058;28;20188;-75
2022/10/20 05:52:41;;;;;;;16.40;13.30;;;;;;;14.66;66.17;97524.28;5029841;28;20188;-74
2022/10/20 05:55:07;;;;;;;17.13;12.40;;;;;;;14.67;65.95;97520.66;5031314;28;20466;-73
2022/10/20 05:57:32;;;;;;;15.93;12.70;;;;;;;14.67;66.11;97518.88;5032696;28;20298;-72
2022/10/20 05:59:58;;;;;;;16.90;12.97;;;;;;;14.71;66.30;97516.72;5032908;28;20437;-73
2022/10/20 06:02:23;;;;;;;19.63;13.07;;;;;;;14.76;66.43;97511.72;5045369;28;20222;-72
2022/10/20 06:04:48;;;;;;;18.93;12.90;;;;;;;14.85;68.06;97516.00;5040786;28;20183;-73
2022/10/20 06:07:14;;;;;;;22.70;14.30;;;;;;;14.82;67.31;97511.06;5041651;28;20274;-73
2022/10/20 06:09:40;;;;;;;20.90;13.87;;;;;;;14.83;67.03;97515.34;5051074;28;20186;-73
2022/10/20 06:12:05;;;;;;;24.40;14.70;;;;;;;14.78;67.27;97515.03;5043497;28;20171;-72
2022/10/20 06:14:31;;;;;;;23.30;13.50;;;;;;;14.74;67.40;97522.47;5039997;28;20187;-73
2022/10/20 06:16:57;;;;;;;21.40;13.77;;;;;;;14.74;67.46;97535.66;5044547;28;20183;-73
2022/10/20 06:19:23;;;;;;;20.60;14.40;;;;;;;14.69;67.63;97539.81;5041060;28;20651;-73
2022/10/20 06:21:49;;;;;;;18.97;13.10;;;;;;;14.67;68.08;97526.78;5042001;28;20225;-74
2022/10/20 06:24:15;;;;;;;22.13;14.43;;;;;;;14.65;68.10;97533.19;5039212;28;20442;-73
2022/10/20 06:26:42;;;;;;;20.00;14.07;;;;;;;14.67;68.01;97524.16;5041000;28;20429;-73
2022/10/20 06:29:11;;;;;;;25.80;14.30;;;;;;;14.64;68.41;97536.81;5039744;28;20482;-74
2022/10/20 06:31:42;;;;;;;24.90;14.63;;;;;;;14.57;68.47;97531.38;5039788;28;20951;-72
2022/10/20 06:34:09;;;;;;;21.03;14.30;;;;;;;14.67;68.24;97542.63;5041139;28;20430;-73
2022/10/20 06:36:36;;;;;;;23.00;13.20;;;;;;;14.70;68.41;97546.72;5040202;28;20422;-72
2022/10/20 06:39:03;;;;;;;23.70;14.73;;;;;;;14.79;68.46;97550.97;5032828;28;20446;-72
2022/10/20 06:41:28;;;;;;;20.27;13.87;;;;;;;14.83;68.49;97547.00;5048200;28;20457;-72
2022/10/20 06:43:57;;;;;;;20.53;13.87;;;;;;;14.90;68.04;97553.22;5046855;28;20461;-74
2022/10/20 06:46:23;;;;;;;21.33;15.00;;;;;;;14.83;67.87;97557.56;5042881;28;20277;-74
2022/10/20 06:48:49;;;;;;;21.67;14.10;;;;;;;14.89;67.92;97551.59;5035475;28;20532;-73
2022/10/20 06:51:22;;;;;;;23.40;14.47;;;;;;;14.89;68.01;97551.59;5036785;28;20271;-74
2022/10/20 06:53:49;;;;;;;21.27;13.90;;;;;;;14.92;68.03;97550.44;5040445;28;20180;-73
2022/10/20 06:56:17;;;;;;;24.73;14.67;;;;;;;14.96;67.91;97545.63;5042121;28;20467;-75
2022/10/20 06:58:44;;;;;;;24.83;14.30;;;;;;;15.00;68.28;97547.75;5036794;28;20458;-72
2022/10/20 07:01:23;;;;;;;22.63;13.83;;;;;;;15.01;68.06;97552.03;5044120;28;20486;-72
2022/10/20 07:03:50;;;;;;;20.10;14.77;;;;;;;15.05;67.96;97549.88;5039853;28;20429;-73
2022/10/20 07:06:20;;;;;;;24.33;15.47;;;;;;;15.05;67.93;97552.50;5044604;28;20433;-74
2022/10/20 07:08:46;;;;;;;28.10;15.00;;;;;;;15.15;68.12;97547.03;5039120;28;20600;-72
2022/10/20 07:11:14;;;;;;;24.70;15.20;;;;;;;15.20;68.31;97542.88;5038554;28;20517;-73
2022/10/20 07:13:40;;;;;;;24.43;16.30;;;;;;;15.30;68.08;97542.66;5041067;28;20175;-73
2022/10/20 07:16:08;;;;;;;27.80;17.03;;;;;;;15.41;67.87;97544.06;5031000;28;20455;-74
2022/10/20 07:18:34;;;;;;;24.10;17.00;;;;;;;15.39;67.43;97538.13;5042716;28;20546;-71
2022/10/20 07:21:02;;;;;;;25.13;16.10;;;;;;;15.41;67.60;97537.97;5038200;28;20458;-73
2022/10/20 07:23:29;;;;;;;23.20;14.80;;;;;;;15.49;67.59;97538.75;5043201;28;20924;-74
2022/10/20 07:26:16;;;;;;;24.83;16.03;;;;;;;15.57;67.23;97531.75;5049961;28;20466;-70
2022/10/20 07:28:45;;;;;;;25.83;15.00;;;;;;;15.70;67.29;97531.16;5040656;28;20450;-71
2022/10/20 07:31:13;;;;;;;20.87;13.83;;;;;;;15.78;66.97;97542.47;5046583;28;20413;-72
2022/10/20 07:33:39;;;;;;;22.07;14.00;;;;;;;15.84;66.73;97537.50;5048949;28;20580;-72
2022/10/20 07:36:20;;;;;;;24.83;13.87;;;;;;;15.90;66.70;97547.38;5039681;28;20456;-72
2022/10/20 07:38:46;;;;;;;19.03;14.50;;;;;;;15.95;65.93;97547.66;5043057;28;20695;-74
2022/10/20 07:41:12;;;;;;;19.07;13.87;;;;;;;15.97;66.24;97537.75;5045328;28;20839;-73
2022/10/20 07:43:38;;;;;;;20.50;14.33;;;;;;;16.04;66.32;97533.38;5042872;28;20433;-73
2022/10/20 07:46:04;;;;;;;19.70;13.37;;;;;;;16.13;66.01;97534.13;5047609;28;20180;-73
2022/10/20 07:48:29;;;;;;;30.70;14.63;;;;;;;16.26;66.12;97539.63;5056780;28;20459;-74
2022/10/20 07:51:31;;;;;;;24.00;13.27;;;;;;;16.41;65.98;97538.81;5056609;28;20188;-71
2022/10/20 07:53:59;;;;;;;18.13;13.80;;;;;;;16.59;66.01;97530.53;5042437;28;20186;-75
2022/10/20 07:56:28;;;;;;;19.83;12.10;;;;;;;16.71;65.61;97525.56;5046907;28;20511;-72
2022/10/20 07:58:53;;;;;;;24.90;13.20;;;;;;;16.82;65.13;97530.41;5038896;28;20453;-72
2022/10/20 08:01:19;;;;;;;17.60;11.00;;;;;;;16.82;64.26;97529.59;5042584;28;20458;-74
2022/10/20 08:03:44;;;;;;;21.00;12.10;;;;;;;16.85;63.85;97531.88;5040913;28;20290;-72
2022/10/20 08:06:10;;;;;;;17.60;11.20;;;;;;;17.03;64.09;97531.50;5041576;28;20253;-71
2022/10/20 08:08:35;;;;;;;16.80;11.80;;;;;;;17.13;63.63;97534.69;5043048;28;20198;-73
2022/10/20 08:11:01;;;;;;;19.30;11.43;;;;;;;17.39;63.47;97535.97;5035469;28;20262;-73
2022/10/20 08:13:27;;;;;;;10.73;9.00;;;;;;;17.64;63.67;97532.97;5042417;28;20646;-73
2022/10/20 08:15:53;;;;;;;14.80;10.10;;;;;;;17.90;63.38;97526.25;5046002;28;20203;-73
2022/10/20 08:18:18;;;;;;;15.40;9.33;;;;;;;18.10;62.25;97515.84;5045428;28;20472;-74
2022/10/20 08:20:44;;;;;;;11.00;9.47;;;;;;;18.26;61.13;97515.56;5044436;28;20252;-72
2022/10/20 08:23:13;;;;;;;12.93;9.70;;;;;;;18.39;59.85;97514.00;5037189;28;20632;-74
2022/10/20 08:25:38;;;;;;;15.33;10.00;;;;;;;18.57;60.75;97510.84;5038258;28;20183;-72
2022/10/20 08:28:04;;;;;;;14.80;9.23;;;;;;;18.82;60.37;97513.81;5038800;28;20496;-72
2022/10/20 08:30:30;;;;;;;11.93;8.53;;;;;;;19.05;60.51;97503.91;5045946;28;20175;-72
2022/10/20 08:32:55;;;;;;;14.57;9.27;;;;;;;19.12;58.10;97494.13;5043705;28;20244;-72
2022/10/20 08:35:21;;;;;;;15.23;9.03;;;;;;;19.21;58.33;97502.72;5045453;28;20203;-71
2022/10/20 08:37:47;;;;;;;11.83;9.33;;;;;;;19.35;58.36;97507.06;5043289;28;20195;-73
2022/10/20 08:40:16;;;;;;;10.60;8.37;;;;;;;19.59;57.69;97510.16;5037241;28;20791;-73
2022/10/20 08:42:44;;;;;;;11.63;9.43;;;;;;;19.67;57.41;97514.47;5049218;28;20651;-72
2022/10/20 08:45:20;;;;;;;16.40;9.50;;;;;;;19.81;56.56;97516.13;5040143;28;20429;-72
2022/10/20 08:47:48;;;;;;;9.93;7.70;;;;;;;20.00;56.54;97513.69;5036703;28;20977;-73
2022/10/20 08:50:16;;;;;;;10.70;9.17;;;;;;;20.10;55.56;97517.56;5048319;28;20788;-72
2022/10/20 08:52:43;;;;;;;13.93;10.37;;;;;;;20.13;55.06;97518.19;5044308;28;20483;-73
2022/10/20 08:55:21;;;;;;;14.83;9.20;;;;;;;20.24;55.12;97528.22;5045643;28;20473;-73
2022/10/20 08:57:48;;;;;;;11.20;8.50;;;;;;;20.26;54.16;97528.81;5036824;28;20458;-72
2022/10/20 09:00:20;;;;;;;11.47;9.40;;;;;;;20.32;55.04;97527.97;5041575;28;20800;-72
2022/10/20 09:02:49;;;;;;;14.80;8.90;;;;;;;20.41;54.94;97520.59;5045095;28;20513;-72
2022/10/20 09:05:19;;;;;;;11.40;9.60;;;;;;;20.62;53.82;97511.53;5041460;28;20917;-74
2022/10/20 09:07:47;;;;;;;11.30;8.50;;;;;;;20.85;54.88;97527.06;5037700;28;20989;-73
2022/10/20 09:10:15;;;;;;;19.20;9.07;;;;;;;20.93;53.48;97523.34;5042859;28;20517;-73
2022/10/20 09:12:43;;;;;;;13.57;8.43;;;;;;;21.16;53.56;97516.69;5038657;28;20937;-74
2022/10/20 09:15:13;;;;;;;13.13;8.27;;;;;;;21.36;52.96;97521.09;5037863;28;20442;-73
2022/10/20 09:17:45;;;;;;;14.87;8.23;;;;;;;21.43;52.50;97516.53;5042377;28;20453;-74
2022/10/20 09:20:33;;;;;;;15.63;9.10;;;;;;;21.30;51.86;97530.75;5041127;28;20470;-73
2022/10/20 09:22:59;;;;;;;11.70;8.20;;;;;;;21.14;52.91;97540.88;5045149;28;20441;-73
2022/10/20 09:25:26;;;;;;;12.27;7.50;;;;;;;21.10;52.69;97529.03;5033011;28;20446;-74
2022/10/20 09:27:53;;;;;;;12.73;8.13;;;;;;;21.01;53.27;97527.59;5032003;28;20281;-72
2022/10/20 09:30:27;;;;;;;11.33;8.67;;;;;;;20.96;53.44;97530.09;5042535;28;20437;-73
2022/10/20 09:32:53;;;;;;;11.00;7.43;;;;;;;20.75;53.79;97536.53;5041330;28;20513;-73
2022/10/20 09:35:36;;;;;;;15.93;8.80;;;;;;;20.86;54.17;97534.00;5043232;28;20533;-73
2022/10/20 09:38:22;;;;;;;9.00;8.13;;;;;;;20.69;54.95;97538.97;5035615;28;20211;-73
2022/10/20 09:40:57;;;;;;;12.40;8.23;;;;;;;20.55;54.98;97542.69;5040191;28;20457;-72
2022/10/20 09:43:24;;;;;;;9.63;7.90;;;;;;;20.54;54.97;97551.72;5037486;28;20814;-72
2022/10/20 09:45:56;;;;;;;11.77;8.37;;;;;;;20.24;55.69;97549.50;5042085;28;20829;-72
2022/10/20 09:48:27;;;;;;;11.47;8.70;;;;;;;20.01;56.19;97539.25;5035144;28;20453;-72
2022/10/20 09:50:55;;;;;;;14.10;8.57;;;;;;;20.00;56.19;97541.13;5045962;28;20772;-71
2022/10/20 09:53:26;;;;;;;10.40;7.33;;;;;;;19.92;56.47;97543.97;5045546;28;20496;-73
2022/10/20 09:55:52;;;;;;;8.40;7.60;;;;;;;19.79;56.62;97550.06;5044437;28;20794;-71
2022/10/20 09:58:25;;;;;;;8.13;7.30;;;;;;;19.67;56.79;97551.69;5024932;28;20450;-73
2022/10/20 10:01:03;;;;;;;8.63;7.07;;;;;;;19.55;57.13;97548.78;5043727;28;20708;-73
2022/10/20 10:03:37;;;;;;;6.93;6.27;;;;;;;19.56;56.98;97547.78;5044546;28;20855;-73
2022/10/20 10:06:32;;;;;;;7.77;6.10;;;;;;;19.60;56.90;97546.34;5045785;28;20435;-73
2022/10/20 10:08:59;;;;;;;7.73;6.30;;;;;;;19.54;56.85;97542.66;5040895;28;20454;-73
2022/10/20 10:11:32;;;;;;;7.60;6.10;;;;;;;19.60;57.89;97549.03;5040108;28;20928;-75
2022/10/20 10:13:57;;;;;;;9.80;6.90;;;;;;;19.63;57.72;97549.44;5047067;28;20468;-72
2022/10/20 10:16:23;;;;;;;9.93;6.00;;;;;;;19.67;57.31;97541.06;5049365;28;20466;-73
2022/10/20 10:19:01;;;;;;;9.30;6.27;;;;;;;19.69;57.44;97544.34;5043609;28;20227;-74
2022/10/20 10:21:28;;;;;;;10.23;5.60;;;;;;;19.68;57.42;97548.81;5030452;28;20199;-73
2022/10/20 10:23:57;;;;;;;8.53;5.77;;;;;;;19.71;57.24;97543.09;5038591;28;20795;-73
2022/10/20 10:26:43;;;;;;;10.23;5.93;;;;;;;19.75;57.29;97546.16;5043889;28;20429;-73
2022/10/20 10:29:26;;;;;;;7.13;6.27;;;;;;;19.79;57.41;97550.88;5042990;28;20951;-73
2022/10/20 10:32:14;;;;;;;8.30;7.10;;;;;;;19.72;56.90;97547.41;5043050;28;20433;-74
2022/10/20 10:35:01;;;;;;;10.83;6.20;;;;;;;19.72;56.99;97550.06;5033873;28;20449;-73
2022/10/20 10:37:28;;;;;;;11.40;6.27;;;;;;;19.74;57.58;97553.34;5039513;28;20448;-73
2022/10/20 10:39:53;;;;;;;7.57;6.20;;;;;;;19.78;57.77;97554.56;5020547;28;20441;-72
2022/10/20 10:42:48;;;;;;;6.90;5.63;;;;;;;19.84;58.25;97552.13;5038675;28;20567;-74
2022/10/20 10:45:27;;;;;;;6.97;5.83;;;;;;;19.91;58.22;97548.47;5037925;28;20275;-73
2022/10/20 10:48:22;;;;;;;9.43;6.07;;;;;;;19.93;57.96;97546.44;5041958;28;20793;-73
2022/10/20 10:50:56;;;;;;;9.90;5.57;;;;;;;19.97;57.48;97546.84;5035907;28;20793;-73
2022/10/20 10:53:40;;;;;;;13.63;5.70;;;;;;;19.86;57.63;97545.59;5034359;28;20426;-73
2022/10/20 10:56:36;;;;;;;5.80;5.10;;;;;;;19.85;57.89;97529.81;5042997;28;20458;-73
2022/10/20 10:59:05;;;;;;;6.50;5.63;;;;;;;19.86;57.94;97516.34;5033171;28;20488;-72
2022/10/20 11:01:49;;;;;;;9.83;5.50;;;;;;;19.80;58.07;97515.28;5040796;28;20457;-73
2022/10/20 11:04:26;;;;;;;7.57;5.90;;;;;;;19.77;57.93;97515.72;5034789;28;20430;-72
2022/10/20 11:07:07;;;;;;;9.97;6.00;;;;;;;19.63;58.34;97508.75;5038007;28;20438;-74
2022/10/20 11:09:40;;;;;;;6.63;5.33;;;;;;;19.62;58.95;97507.09;5042759;28;20430;-73
2022/10/20 11:12:43;;;;;;;6.77;5.40;;;;;;;19.65;58.68;97498.72;5037014;28;20422;-73
2022/10/20 11:15:38;;;;;;;13.43;5.87;;;;;;;19.71;58.06;97526.34;5055296;28;20431;-73
2022/10/20 11:18:20;;;;;;;5.53;4.90;;;;;;;19.81;58.44;97505.47;5047207;28;20455;-74
2022/10/20 11:21:05;;;;;;;5.83;4.90;;;;;;;19.92;58.47;97507.56;5034877;28;20470;-73
2022/10/20 11:23:46;;;;;;;7.90;6.00;;;;;;;19.95;58.36;97509.81;5037202;28;20841;-74
2022/10/20 11:26:19;;;;;;;8.77;5.20;;;;;;;20.03;58.15;97503.47;5033056;28;20949;-72
2022/10/20 11:28:46;;;;;;;6.07;5.47;;;;;;;20.12;58.43;97495.28;5037201;28;20481;-73
2022/10/20 11:31:21;;;;;;;6.17;5.53;;;;;;;20.18;58.27;97478.47;5038413;28;20430;-75